Stallovarre — LHBG — position and weather

sailwx.info

Track history (hours):
 
Tides and Currents Weather Stations Pressure Air Temp Water Temp Dewpoint Dewpoint Depression Visibility Wind Speed Wind Dir Waves Ship Positions

Stallovarre

Last reported at 2016-Aug-29 12:33 UTC. Time now 2016-Aug-29 12:56 UTC.
Position N 59°14' E 005°56'.

Length 54 m; draft 5 m.

MMSI: 257374400.

Date/timePositionNaut miles runAvg speedWind from/ knotsBaromVisibWave heightAir tempDewpointWater temp
2016-Aug-29 12:33N 59°14' E 005°56'1 1.0
2016-Aug-29 11:32N 59°13' E 005°54'4 4.2
2016-Aug-29 10:34N 59°09' E 005°53'5 4.7
2016-Aug-29 09:28N 59°14' E 005°54'5 5.5
2016-Aug-29 08:33N 59°10' E 005°53'5 4.6
2016-Aug-29 07:30N 59°14' E 005°56'4 3.8
2016-Aug-29 06:33N 59°11' E 005°53'2 1.5
2016-Aug-29 05:32N 59°12' E 005°55'1 0.7
2016-Aug-29 04:33N 59°12' E 005°54'1 0.1
2016-Aug-28 21:33N 59°11' E 005°53'1 0.5
2016-Aug-28 20:33N 59°11' E 005°54'0 0.5
2016-Aug-28 19:33N 59°11' E 005°53'1 1.0
2016-Aug-28 18:15N 59°10' E 005°53'1 1.3
2016-Aug-28 17:33N 59°09' E 005°53'1010.2
2016-Aug-28 16:33N 58°60' E 005°48'2 2.2
2016-Aug-28 15:33N 58°59' E 005°44'0 0.0
2016-Aug-28 14:33N 58°59' E 005°44'0 0.0
2016-Aug-28 13:33N 58°59' E 005°44'0 0.0
2016-Aug-28 12:33N 58°59' E 005°44'0 0.0
2016-Aug-28 11:33N 58°59' E 005°44'0 0.0
2016-Aug-28 10:33N 58°59' E 005°44'0 0.0
2016-Aug-28 09:33N 58°59' E 005°44'0 0.0
2016-Aug-28 08:33N 58°59' E 005°44'0 0.0
2016-Aug-28 07:33N 58°59' E 005°44'0 0.0
2016-Aug-28 06:33N 58°59' E 005°44'0 0.0
2016-Aug-28 05:33N 58°59' E 005°44'0 0.0
2016-Aug-28 04:33N 58°59' E 005°44'0 0.0
2016-Aug-28 03:33N 58°59' E 005°44'0 0.0
2016-Aug-28 02:33N 58°59' E 005°44'0 0.0
2016-Aug-28 01:33N 58°59' E 005°44'0 0.0
2016-Aug-28 00:33N 58°59' E 005°44'0 0.0
2016-Aug-27 23:33N 58°59' E 005°44'0 0.0
2016-Aug-27 22:33N 58°59' E 005°44'0 0.0
2016-Aug-27 21:33N 58°59' E 005°44'0 0.0
2016-Aug-27 20:33N 58°59' E 005°44'0 0.0
2016-Aug-27 19:33N 58°59' E 005°44'0 0.0
2016-Aug-27 18:33N 58°59' E 005°44'0 0.0
2016-Aug-27 17:33N 58°59' E 005°44'0 0.0
2016-Aug-27 16:33N 58°59' E 005°44'0 0.0
2016-Aug-27 15:33N 58°59' E 005°44'0 0.0
2016-Aug-27 14:33N 58°59' E 005°44'0 0.0
2016-Aug-27 13:33N 58°59' E 005°44'0 0.0
2016-Aug-27 12:33N 58°59' E 005°44'0 0.0
2016-Aug-27 11:33N 58°59' E 005°44'0 0.0
2016-Aug-27 10:33N 58°59' E 005°44'0 0.0
2016-Aug-27 09:33N 58°59' E 005°44'0 0.0
2016-Aug-27 08:33N 58°59' E 005°44'0 0.0
2016-Aug-27 07:33N 58°59' E 005°44'0 0.0
2016-Aug-27 06:33N 58°59' E 005°44'0 0.0
2016-Aug-27 04:33N 58°59' E 005°44'0 0.0
2016-Aug-27 03:33N 58°59' E 005°44'0 0.0
2016-Aug-27 02:33N 58°59' E 005°44'0 0.0
2016-Aug-27 01:33N 58°59' E 005°44'0 0.0
2016-Aug-27 00:33N 58°59' E 005°44'0 0.0
2016-Aug-26 23:33N 58°59' E 005°44'0 0.0
2016-Aug-26 22:33N 58°59' E 005°44'0 0.0
2016-Aug-26 21:33N 58°59' E 005°44'0 0.0
2016-Aug-26 20:33N 58°59' E 005°44'0 0.0
2016-Aug-26 19:33N 58°59' E 005°44'0 0.0
2016-Aug-26 18:33N 58°59' E 005°44'0 0.0
2016-Aug-26 17:33N 58°59' E 005°44'0 0.0
2016-Aug-26 16:33N 58°59' E 005°44'0 0.0
2016-Aug-26 15:33N 58°59' E 005°44'0 0.0
2016-Aug-26 14:33N 58°59' E 005°44'0 0.0
2016-Aug-26 13:33N 58°59' E 005°44'0 0.0
2016-Aug-26 12:33N 58°59' E 005°44'0 0.0
2016-Aug-26 11:33N 58°59' E 005°44'0 0.0
2016-Aug-26 10:33N 58°59' E 005°44'0 0.0
2016-Aug-26 09:33N 58°59' E 005°44'0 0.0
2016-Aug-26 08:33N 58°59' E 005°44'0 0.0
2016-Aug-26 07:33N 58°59' E 005°44'0 0.0
2016-Aug-26 06:33N 58°59' E 005°44'0 0.0
2016-Aug-26 04:33N 58°59' E 005°44'0 0.0
2016-Aug-26 03:33N 58°59' E 005°44'0 0.0
2016-Aug-26 02:33N 58°59' E 005°44'0 0.0
2016-Aug-26 01:33N 58°59' E 005°44'0 0.0
2016-Aug-26 00:33N 58°59' E 005°44'0 0.0
2016-Aug-25 23:33N 58°59' E 005°44'0 0.0
2016-Aug-25 22:33N 58°59' E 005°44'0 0.0
2016-Aug-25 21:33N 58°59' E 005°44'0 0.0
2016-Aug-25 20:33N 58°59' E 005°44'0 0.0
2016-Aug-25 19:33N 58°59' E 005°44'0 0.0
2016-Aug-25 18:33N 58°59' E 005°44'0 0.0
2016-Aug-25 17:33N 58°59' E 005°44'0 0.0
2016-Aug-25 16:33N 58°59' E 005°44'0 0.0
2016-Aug-25 15:33N 58°59' E 005°44'0 0.0
2016-Aug-25 14:33N 58°59' E 005°44'0 0.0
2016-Aug-25 13:33N 58°59' E 005°44'0 0.0
2016-Aug-25 12:33N 58°59' E 005°44'0 0.0
2016-Aug-25 11:33N 58°59' E 005°44'0 0.0
2016-Aug-25 10:33N 58°59' E 005°44'0 0.0
2016-Aug-25 09:33N 58°59' E 005°44'0 0.0
2016-Aug-25 08:33N 58°59' E 005°44'0 0.0
2016-Aug-25 07:33N 58°59' E 005°44'0 0.0
2016-Aug-25 06:33N 58°59' E 005°44'0 0.0
2016-Aug-25 04:33N 58°59' E 005°44'0 0.0
2016-Aug-25 03:33N 58°59' E 005°44'0 0.0
2016-Aug-25 02:33N 58°59' E 005°44'0 0.0
2016-Aug-25 01:33N 58°59' E 005°44'0 0.0
2016-Aug-25 00:33N 58°59' E 005°44'0 0.0
2016-Aug-24 23:33N 58°59' E 005°44'0 0.0
2016-Aug-24 22:33N 58°59' E 005°44'0 0.0
2016-Aug-24 21:33N 58°59' E 005°44'0 0.0
2016-Aug-24 20:33N 58°59' E 005°44'0 0.0
2016-Aug-24 19:33N 58°59' E 005°44'0 0.0
2016-Aug-24 18:33N 58°59' E 005°44'0 0.0
2016-Aug-24 17:33N 58°59' E 005°44'0 0.0
2016-Aug-24 16:33N 58°59' E 005°44'0 0.0
2016-Aug-24 15:33N 58°59' E 005°44'0 0.0
2016-Aug-24 14:33N 58°59' E 005°44'0 0.0
2016-Aug-24 13:33N 58°59' E 005°44'0 0.0
2016-Aug-24 12:33N 58°59' E 005°44'0 0.0
2016-Aug-24 11:33N 58°59' E 005°44'0 0.0
2016-Aug-24 10:33N 58°59' E 005°44'2 1.7
2016-Aug-24 09:34N 58°59' E 005°47'1513.7
2016-Aug-24 08:30N 59°11' E 006°03'5 5.7
2016-Aug-24 07:32N 59°16' E 006°10'0 0.5
2016-Aug-24 06:33N 59°15' E 006°10'1 0.4
2016-Aug-24 04:28N 59°15' E 006°08'8 8.7
2016-Aug-24 03:33N 59°08' E 005°59'1212.3
2016-Aug-24 02:34N 58°58' E 005°44'0 0.4
2016-Aug-24 01:33N 58°59' E 005°44'  
2016-Aug-21 04:14N 58°59' E 005°44'0 0.0
2016-Aug-21 03:33N 58°59' E 005°44'0 0.0
2016-Aug-21 02:33N 58°59' E 005°44'0 0.0
2016-Aug-21 01:33N 58°59' E 005°44'0 0.0
2016-Aug-21 00:33N 58°59' E 005°44'0 0.0
2016-Aug-20 23:33N 58°59' E 005°44'0 0.0
2016-Aug-20 22:33N 58°59' E 005°44'0 0.0
2016-Aug-20 21:33N 58°59' E 005°44'0 0.0
2016-Aug-20 20:33N 58°59' E 005°44'0 0.0
2016-Aug-20 19:33N 58°59' E 005°44'0 0.0
2016-Aug-20 18:33N 58°59' E 005°44'0 0.0
2016-Aug-20 17:33N 58°59' E 005°44'0 0.0
2016-Aug-20 16:33N 58°59' E 005°44'0 0.0
2016-Aug-20 15:33N 58°59' E 005°44'0 0.0
2016-Aug-20 14:33N 58°59' E 005°44'0 0.0
2016-Aug-20 13:33N 58°59' E 005°44'0 0.0
2016-Aug-20 12:33N 58°59' E 005°44'0 0.0
2016-Aug-20 11:33N 58°59' E 005°44'0 0.0
2016-Aug-20 10:33N 58°59' E 005°44'0 0.0
2016-Aug-20 09:33N 58°59' E 005°44'0 0.0
2016-Aug-20 08:33N 58°59' E 005°44'0 0.0
2016-Aug-20 07:33N 58°59' E 005°44'0 0.0
2016-Aug-20 06:33N 58°59' E 005°44'0 0.0
2016-Aug-20 05:33N 58°59' E 005°44'0 0.0
2016-Aug-20 04:33N 58°59' E 005°44'0 0.0
2016-Aug-20 03:33N 58°59' E 005°44'0 0.0
2016-Aug-20 02:33N 58°59' E 005°44'0 0.0
2016-Aug-20 01:33N 58°59' E 005°44'0 0.0
2016-Aug-20 00:33N 58°59' E 005°44'0 0.0
2016-Aug-19 23:33N 58°59' E 005°44'0 0.0
2016-Aug-19 22:33N 58°59' E 005°44'0 0.0
2016-Aug-19 21:33N 58°59' E 005°44'0 0.0
2016-Aug-19 20:33N 58°59' E 005°44'0 0.0
2016-Aug-19 19:33N 58°59' E 005°44'0 0.0
2016-Aug-19 18:33N 58°59' E 005°44'9 8.8
2016-Aug-19 17:32N 59°06' E 005°54'12 6.0
2016-Aug-19 15:33N 59°15' E 006°10'0 0.4
2016-Aug-19 14:33N 59°16' E 006°09'1 1.1
2016-Aug-19 13:28N 59°15' E 006°08'1 1.3
2016-Aug-19 12:33N 59°15' E 006°10'  
Track history (hours):
 
Tides and Currents Weather Stations Pressure Air Temp Water Temp Dewpoint Dewpoint Depression Visibility Wind Speed Wind Dir Waves Ship Positions

Stallovarre

Last reported at 2016-Aug-29 12:33 UTC. Time now 2016-Aug-29 12:56 UTC.
Position N 59°14' E 005°56'.

Length 54 m; draft 5 m.

MMSI: 257374400.

Date/timePositionNaut miles runAvg speedWind from/ knotsBaromVisibWave heightAir tempDewpointWater temp
2016-Aug-29 12:33N 59°14' E 005°56'1 1.0
2016-Aug-29 11:32N 59°13' E 005°54'4 4.2
2016-Aug-29 10:34N 59°09' E 005°53'5 4.7
2016-Aug-29 09:28N 59°14' E 005°54'5 5.5
2016-Aug-29 08:33N 59°10' E 005°53'5 4.6
2016-Aug-29 07:30N 59°14' E 005°56'4 3.8
2016-Aug-29 06:33N 59°11' E 005°53'2 1.5
2016-Aug-29 05:32N 59°12' E 005°55'1 0.7
2016-Aug-29 04:33N 59°12' E 005°54'1 0.1
2016-Aug-28 21:33N 59°11' E 005°53'1 0.5
2016-Aug-28 20:33N 59°11' E 005°54'0 0.5
2016-Aug-28 19:33N 59°11' E 005°53'1 1.0
2016-Aug-28 18:15N 59°10' E 005°53'1 1.3
2016-Aug-28 17:33N 59°09' E 005°53'1010.2
2016-Aug-28 16:33N 58°60' E 005°48'2 2.2
2016-Aug-28 15:33N 58°59' E 005°44'0 0.0
2016-Aug-28 14:33N 58°59' E 005°44'0 0.0
2016-Aug-28 13:33N 58°59' E 005°44'0 0.0
2016-Aug-28 12:33N 58°59' E 005°44'0 0.0
2016-Aug-28 11:33N 58°59' E 005°44'0 0.0
2016-Aug-28 10:33N 58°59' E 005°44'0 0.0
2016-Aug-28 09:33N 58°59' E 005°44'0 0.0
2016-Aug-28 08:33N 58°59' E 005°44'0 0.0
2016-Aug-28 07:33N 58°59' E 005°44'0 0.0
2016-Aug-28 06:33N 58°59' E 005°44'0 0.0
2016-Aug-28 05:33N 58°59' E 005°44'0 0.0
2016-Aug-28 04:33N 58°59' E 005°44'0 0.0
2016-Aug-28 03:33N 58°59' E 005°44'0 0.0
2016-Aug-28 02:33N 58°59' E 005°44'0 0.0
2016-Aug-28 01:33N 58°59' E 005°44'0 0.0
2016-Aug-28 00:33N 58°59' E 005°44'0 0.0
2016-Aug-27 23:33N 58°59' E 005°44'0 0.0
2016-Aug-27 22:33N 58°59' E 005°44'0 0.0
2016-Aug-27 21:33N 58°59' E 005°44'0 0.0
2016-Aug-27 20:33N 58°59' E 005°44'0 0.0
2016-Aug-27 19:33N 58°59' E 005°44'0 0.0
2016-Aug-27 18:33N 58°59' E 005°44'0 0.0
2016-Aug-27 17:33N 58°59' E 005°44'0 0.0
2016-Aug-27 16:33N 58°59' E 005°44'0 0.0
2016-Aug-27 15:33N 58°59' E 005°44'0 0.0
2016-Aug-27 14:33N 58°59' E 005°44'0 0.0
2016-Aug-27 13:33N 58°59' E 005°44'0 0.0
2016-Aug-27 12:33N 58°59' E 005°44'0 0.0
2016-Aug-27 11:33N 58°59' E 005°44'0 0.0
2016-Aug-27 10:33N 58°59' E 005°44'0 0.0
2016-Aug-27 09:33N 58°59' E 005°44'0 0.0
2016-Aug-27 08:33N 58°59' E 005°44'0 0.0
2016-Aug-27 07:33N 58°59' E 005°44'0 0.0
2016-Aug-27 06:33N 58°59' E 005°44'0 0.0
2016-Aug-27 04:33N 58°59' E 005°44'0 0.0
2016-Aug-27 03:33N 58°59' E 005°44'0 0.0
2016-Aug-27 02:33N 58°59' E 005°44'0 0.0
2016-Aug-27 01:33N 58°59' E 005°44'0 0.0
2016-Aug-27 00:33N 58°59' E 005°44'0 0.0
2016-Aug-26 23:33N 58°59' E 005°44'0 0.0
2016-Aug-26 22:33N 58°59' E 005°44'0 0.0
2016-Aug-26 21:33N 58°59' E 005°44'0 0.0
2016-Aug-26 20:33N 58°59' E 005°44'0 0.0
2016-Aug-26 19:33N 58°59' E 005°44'0 0.0
2016-Aug-26 18:33N 58°59' E 005°44'0 0.0
2016-Aug-26 17:33N 58°59' E 005°44'0 0.0
2016-Aug-26 16:33N 58°59' E 005°44'0 0.0
2016-Aug-26 15:33N 58°59' E 005°44'0 0.0
2016-Aug-26 14:33N 58°59' E 005°44'0 0.0
2016-Aug-26 13:33N 58°59' E 005°44'0 0.0
2016-Aug-26 12:33N 58°59' E 005°44'0 0.0
2016-Aug-26 11:33N 58°59' E 005°44'0 0.0
2016-Aug-26 10:33N 58°59' E 005°44'0 0.0
2016-Aug-26 09:33N 58°59' E 005°44'0 0.0
2016-Aug-26 08:33N 58°59' E 005°44'0 0.0
2016-Aug-26 07:33N 58°59' E 005°44'0 0.0
2016-Aug-26 06:33N 58°59' E 005°44'0 0.0
2016-Aug-26 04:33N 58°59' E 005°44'0 0.0
2016-Aug-26 03:33N 58°59' E 005°44'0 0.0
2016-Aug-26 02:33N 58°59' E 005°44'0 0.0
2016-Aug-26 01:33N 58°59' E 005°44'0 0.0
2016-Aug-26 00:33N 58°59' E 005°44'0 0.0
2016-Aug-25 23:33N 58°59' E 005°44'0 0.0
2016-Aug-25 22:33N 58°59' E 005°44'0 0.0
2016-Aug-25 21:33N 58°59' E 005°44'0 0.0
2016-Aug-25 20:33N 58°59' E 005°44'0 0.0
2016-Aug-25 19:33N 58°59' E 005°44'0 0.0
2016-Aug-25 18:33N 58°59' E 005°44'0 0.0
2016-Aug-25 17:33N 58°59' E 005°44'0 0.0
2016-Aug-25 16:33N 58°59' E 005°44'0 0.0
2016-Aug-25 15:33N 58°59' E 005°44'0 0.0
2016-Aug-25 14:33N 58°59' E 005°44'0 0.0
2016-Aug-25 13:33N 58°59' E 005°44'0 0.0
2016-Aug-25 12:33N 58°59' E 005°44'0 0.0
2016-Aug-25 11:33N 58°59' E 005°44'0 0.0
2016-Aug-25 10:33N 58°59' E 005°44'0 0.0
2016-Aug-25 09:33N 58°59' E 005°44'0 0.0
2016-Aug-25 08:33N 58°59' E 005°44'0 0.0
2016-Aug-25 07:33N 58°59' E 005°44'0 0.0
2016-Aug-25 06:33N 58°59' E 005°44'0 0.0
2016-Aug-25 04:33N 58°59' E 005°44'0 0.0
2016-Aug-25 03:33N 58°59' E 005°44'0 0.0
2016-Aug-25 02:33N 58°59' E 005°44'0 0.0
2016-Aug-25 01:33N 58°59' E 005°44'0 0.0
2016-Aug-25 00:33N 58°59' E 005°44'0 0.0
2016-Aug-24 23:33N 58°59' E 005°44'0 0.0
2016-Aug-24 22:33N 58°59' E 005°44'0 0.0
2016-Aug-24 21:33N 58°59' E 005°44'0 0.0
2016-Aug-24 20:33N 58°59' E 005°44'0 0.0
2016-Aug-24 19:33N 58°59' E 005°44'0 0.0
2016-Aug-24 18:33N 58°59' E 005°44'0 0.0
2016-Aug-24 17:33N 58°59' E 005°44'0 0.0
2016-Aug-24 16:33N 58°59' E 005°44'0 0.0
2016-Aug-24 15:33N 58°59' E 005°44'0 0.0
2016-Aug-24 14:33N 58°59' E 005°44'0 0.0
2016-Aug-24 13:33N 58°59' E 005°44'0 0.0
2016-Aug-24 12:33N 58°59' E 005°44'0 0.0
2016-Aug-24 11:33N 58°59' E 005°44'0 0.0
2016-Aug-24 10:33N 58°59' E 005°44'2 1.7
2016-Aug-24 09:34N 58°59' E 005°47'1513.7
2016-Aug-24 08:30N 59°11' E 006°03'5 5.7
2016-Aug-24 07:32N 59°16' E 006°10'0 0.5
2016-Aug-24 06:33N 59°15' E 006°10'1 0.4
2016-Aug-24 04:28N 59°15' E 006°08'8 8.7
2016-Aug-24 03:33N 59°08' E 005°59'1212.3
2016-Aug-24 02:34N 58°58' E 005°44'0 0.4
2016-Aug-24 01:33N 58°59' E 005°44'  
2016-Aug-21 04:14N 58°59' E 005°44'0 0.0
2016-Aug-21 03:33N 58°59' E 005°44'0 0.0
2016-Aug-21 02:33N 58°59' E 005°44'0 0.0
2016-Aug-21 01:33N 58°59' E 005°44'0 0.0
2016-Aug-21 00:33N 58°59' E 005°44'0 0.0
2016-Aug-20 23:33N 58°59' E 005°44'0 0.0
2016-Aug-20 22:33N 58°59' E 005°44'0 0.0
2016-Aug-20 21:33N 58°59' E 005°44'0 0.0
2016-Aug-20 20:33N 58°59' E 005°44'0 0.0
2016-Aug-20 19:33N 58°59' E 005°44'0 0.0
2016-Aug-20 18:33N 58°59' E 005°44'0 0.0
2016-Aug-20 17:33N 58°59' E 005°44'0 0.0
2016-Aug-20 16:33N 58°59' E 005°44'0 0.0
2016-Aug-20 15:33N 58°59' E 005°44'0 0.0
2016-Aug-20 14:33N 58°59' E 005°44'0 0.0
2016-Aug-20 13:33N 58°59' E 005°44'0 0.0
2016-Aug-20 12:33N 58°59' E 005°44'0 0.0
2016-Aug-20 11:33N 58°59' E 005°44'0 0.0
2016-Aug-20 10:33N 58°59' E 005°44'0 0.0
2016-Aug-20 09:33N 58°59' E 005°44'0 0.0
2016-Aug-20 08:33N 58°59' E 005°44'0 0.0
2016-Aug-20 07:33N 58°59' E 005°44'0 0.0
2016-Aug-20 06:33N 58°59' E 005°44'0 0.0
2016-Aug-20 05:33N 58°59' E 005°44'0 0.0
2016-Aug-20 04:33N 58°59' E 005°44'0 0.0
2016-Aug-20 03:33N 58°59' E 005°44'0 0.0
2016-Aug-20 02:33N 58°59' E 005°44'0 0.0
2016-Aug-20 01:33N 58°59' E 005°44'0 0.0
2016-Aug-20 00:33N 58°59' E 005°44'0 0.0
2016-Aug-19 23:33N 58°59' E 005°44'0 0.0
2016-Aug-19 22:33N 58°59' E 005°44'0 0.0
2016-Aug-19 21:33N 58°59' E 005°44'0 0.0
2016-Aug-19 20:33N 58°59' E 005°44'0 0.0
2016-Aug-19 19:33N 58°59' E 005°44'0 0.0
2016-Aug-19 18:33N 58°59' E 005°44'9 8.8
2016-Aug-19 17:32N 59°06' E 005°54'12 6.0
2016-Aug-19 15:33N 59°15' E 006°10'0 0.4
2016-Aug-19 14:33N 59°16' E 006°09'1 1.1
2016-Aug-19 13:28N 59°15' E 006°08'1 1.3
2016-Aug-19 12:33N 59°15' E 006°10'  

Dump ship's entire track history